Largo — PFNC — position and weather

sailwx.info

Track history (hours):
 
Tides and Currents Weather Stations Pressure Air Temp Water Temp Dewpoint Dewpoint Depression Visibility Wind Speed Wind Dir Waves Ship Positions

Largo

Last reported at 2014-Nov-23 11:23 UTC. Time now 2014-Nov-24 15:12 UTC.
Position N 38°02' E 003°19'.

Length 91 m; draft 6.5 m.

Type: Cargo ship. MMSI: 245645000.

Date/timePositionNaut miles runAvg speedWind from/ knotsBaromVisibWave heightAir tempDewpointWater temp
2014-Nov-23 11:23N 38°02' E 003°19'10 9.4
2014-Nov-23 10:17N 38°09' E 003°09'6 7.8
2014-Nov-23 09:32N 38°13' E 003°03'17 8.6
2014-Nov-23 07:33N 38°24' E 002°47'9 9.0
2014-Nov-23 06:33N 38°30' E 002°38'9 9.1
2014-Nov-23 05:33N 38°36' E 002°30'9 9.1
2014-Nov-23 04:33N 38°42' E 002°21'9 8.8
2014-Nov-23 03:33N 38°48' E 002°12'9 8.7
2014-Nov-23 02:33N 38°54' E 002°04'8 8.3
2014-Nov-23 01:33N 38°59' E 001°56'9 8.8
2014-Nov-23 00:33N 39°05' E 001°47'9 8.6
2014-Nov-22 23:33N 39°10' E 001°38'10 8.8
2014-Nov-22 22:27N 39°15' E 001°28'8 8.8
2014-Nov-22 21:33N 39°19' E 001°19'  
Track history (hours):
 
Tides and Currents Weather Stations Pressure Air Temp Water Temp Dewpoint Dewpoint Depression Visibility Wind Speed Wind Dir Waves Ship Positions

Largo

Last reported at 2014-Nov-23 11:23 UTC. Time now 2014-Nov-24 15:12 UTC.
Position N 38°02' E 003°19'.

Length 91 m; draft 6.5 m.

Type: Cargo ship. MMSI: 245645000.

Date/timePositionNaut miles runAvg speedWind from/ knotsBaromVisibWave heightAir tempDewpointWater temp
2014-Nov-23 11:23N 38°02' E 003°19'10 9.4
2014-Nov-23 10:17N 38°09' E 003°09'6 7.8
2014-Nov-23 09:32N 38°13' E 003°03'17 8.6
2014-Nov-23 07:33N 38°24' E 002°47'9 9.0
2014-Nov-23 06:33N 38°30' E 002°38'9 9.1
2014-Nov-23 05:33N 38°36' E 002°30'9 9.1
2014-Nov-23 04:33N 38°42' E 002°21'9 8.8
2014-Nov-23 03:33N 38°48' E 002°12'9 8.7
2014-Nov-23 02:33N 38°54' E 002°04'8 8.3
2014-Nov-23 01:33N 38°59' E 001°56'9 8.8
2014-Nov-23 00:33N 39°05' E 001°47'9 8.6
2014-Nov-22 23:33N 39°10' E 001°38'10 8.8
2014-Nov-22 22:27N 39°15' E 001°28'8 8.8
2014-Nov-22 21:33N 39°19' E 001°19'  

Dump ship's entire track history